sensor_id;sensor_type;location;lat;lon;timestamp;temperature;humidity
40534;DHT22;26233;51.894;10.192;2023-02-11T00:02:14;6.40;44.00
40534;DHT22;26233;51.894;10.192;2023-02-11T00:04:44;6.40;44.00
40534;DHT22;26233;51.894;10.192;2023-02-11T00:07:12;6.40;44.00
40534;DHT22;26233;51.894;10.192;2023-02-11T00:09:39;6.40;44.10
40534;DHT22;26233;51.894;10.192;2023-02-11T00:12:06;6.40;44.10
40534;DHT22;26233;51.894;10.192;2023-02-11T00:14:33;6.50;44.10
40534;DHT22;26233;51.894;10.192;2023-02-11T00:17:00;6.50;44.20
40534;DHT22;26233;51.894;10.192;2023-02-11T00:19:27;6.50;44.20
40534;DHT22;26233;51.894;10.192;2023-02-11T00:21:54;6.50;44.20
40534;DHT22;26233;51.894;10.192;2023-02-11T00:24:22;6.50;44.20
40534;DHT22;26233;51.894;10.192;2023-02-11T00:26:51;6.50;44.20
40534;DHT22;26233;51.894;10.192;2023-02-11T00:29:18;6.50;44.20
40534;DHT22;26233;51.894;10.192;2023-02-11T00:31:45;6.50;44.20
40534;DHT22;26233;51.894;10.192;2023-02-11T00:34:12;6.50;44.50
40534;DHT22;26233;51.894;10.192;2023-02-11T00:36:39;6.50;44.30
40534;DHT22;26233;51.894;10.192;2023-02-11T00:39:07;6.60;44.50
40534;DHT22;26233;51.894;10.192;2023-02-11T00:41:36;6.60;44.50
40534;DHT22;26233;51.894;10.192;2023-02-11T00:44:03;6.60;44.50
40534;DHT22;26233;51.894;10.192;2023-02-11T00:46:30;6.60;44.40
40534;DHT22;26233;51.894;10.192;2023-02-11T00:48:57;6.70;44.50
40534;DHT22;26233;51.894;10.192;2023-02-11T00:51:25;6.70;44.50
40534;DHT22;26233;51.894;10.192;2023-02-11T00:53:53;6.70;44.50
40534;DHT22;26233;51.894;10.192;2023-02-11T00:56:20;6.70;44.50
40534;DHT22;26233;51.894;10.192;2023-02-11T00:58:49;6.70;44.50
40534;DHT22;26233;51.894;10.192;2023-02-11T01:01:16;6.70;44.50
40534;DHT22;26233;51.894;10.192;2023-02-11T01:03:43;6.70;44.50
40534;DHT22;26233;51.894;10.192;2023-02-11T01:06:11;6.70;44.60
40534;DHT22;26233;51.894;10.192;2023-02-11T01:08:38;6.80;45.30
40534;DHT22;26233;51.894;10.192;2023-02-11T01:11:10;6.80;44.60
40534;DHT22;26233;51.894;10.192;2023-02-11T01:13:38;6.80;44.60
40534;DHT22;26233;51.894;10.192;2023-02-11T01:16:08;6.80;44.60
40534;DHT22;26233;51.894;10.192;2023-02-11T01:18:36;6.80;44.60
40534;DHT22;26233;51.894;10.192;2023-02-11T01:21:04;6.80;44.60
40534;DHT22;26233;51.894;10.192;2023-02-11T01:23:32;6.80;44.60
40534;DHT22;26233;51.894;10.192;2023-02-11T01:25:59;6.80;44.60
40534;DHT22;26233;51.894;10.192;2023-02-11T01:28:28;6.90;44.60
40534;DHT22;26233;51.894;10.192;2023-02-11T01:30:59;6.80;44.70
40534;DHT22;26233;51.894;10.192;2023-02-11T01:33:27;6.90;44.70
40534;DHT22;26233;51.894;10.192;2023-02-11T01:35:54;6.80;44.60
40534;DHT22;26233;51.894;10.192;2023-02-11T01:38:25;6.90;44.70
40534;DHT22;26233;51.894;10.192;2023-02-11T01:40:54;6.90;44.70
40534;DHT22;26233;51.894;10.192;2023-02-11T01:43:24;6.90;44.70
40534;DHT22;26233;51.894;10.192;2023-02-11T01:45:57;6.90;44.70
40534;DHT22;26233;51.894;10.192;2023-02-11T01:48:30;6.90;44.70
40534;DHT22;26233;51.894;10.192;2023-02-11T01:51:02;7.00;44.80
40534;DHT22;26233;51.894;10.192;2023-02-11T01:53:33;6.90;44.70
40534;DHT22;26233;51.894;10.192;2023-02-11T01:56:19;6.90;44.70
40534;DHT22;26233;51.894;10.192;2023-02-11T01:59:10;6.90;44.70
40534;DHT22;26233;51.894;10.192;2023-02-11T02:01:42;6.90;44.70
40534;DHT22;26233;51.894;10.192;2023-02-11T02:04:15;6.90;44.80
40534;DHT22;26233;51.894;10.192;2023-02-11T02:06:49;6.90;44.90
40534;DHT22;26233;51.894;10.192;2023-02-11T02:09:21;6.90;45.00
40534;DHT22;26233;51.894;10.192;2023-02-11T02:11:50;6.90;44.90
40534;DHT22;26233;51.894;10.192;2023-02-11T02:14:17;7.00;45.00
40534;DHT22;26233;51.894;10.192;2023-02-11T02:16:45;7.00;45.10
40534;DHT22;26233;51.894;10.192;2023-02-11T02:22:42;7.00;45.10
40534;DHT22;26233;51.894;10.192;2023-02-11T02:29:26;7.00;45.10
40534;DHT22;26233;51.894;10.192;2023-02-11T02:32:28;7.00;45.70
40534;DHT22;26233;51.894;10.192;2023-02-11T02:35:07;7.00;45.20
40534;DHT22;26233;51.894;10.192;2023-02-11T02:37:42;7.00;45.10
40534;DHT22;26233;51.894;10.192;2023-02-11T02:40:16;6.90;45.10
40534;DHT22;26233;51.894;10.192;2023-02-11T02:42:48;7.00;45.10
40534;DHT22;26233;51.894;10.192;2023-02-11T02:45:17;7.00;45.10
40534;DHT22;26233;51.894;10.192;2023-02-11T02:47:45;6.90;45.10
40534;DHT22;26233;51.894;10.192;2023-02-11T02:50:14;7.00;45.20
40534;DHT22;26233;51.894;10.192;2023-02-11T02:52:53;6.90;45.20
40534;DHT22;26233;51.894;10.192;2023-02-11T02:55:34;6.90;45.30
40534;DHT22;26233;51.894;10.192;2023-02-11T02:58:42;6.90;45.30
40534;DHT22;26233;51.894;10.192;2023-02-11T03:01:36;6.90;45.40
40534;DHT22;26233;51.894;10.192;2023-02-11T03:04:13;6.90;45.30
40534;DHT22;26233;51.894;10.192;2023-02-11T03:06:48;6.90;45.30
40534;DHT22;26233;51.894;10.192;2023-02-11T03:09:22;6.90;45.90
40534;DHT22;26233;51.894;10.192;2023-02-11T03:11:53;6.90;45.30
40534;DHT22;26233;51.894;10.192;2023-02-11T03:14:21;7.00;45.40
40534;DHT22;26233;51.894;10.192;2023-02-11T03:16:49;6.90;45.30
40534;DHT22;26233;51.894;10.192;2023-02-11T03:19:21;6.90;45.30
40534;DHT22;26233;51.894;10.192;2023-02-11T03:21:50;6.90;45.40
40534;DHT22;26233;51.894;10.192;2023-02-11T03:24:22;6.90;45.50
40534;DHT22;26233;51.894;10.192;2023-02-11T03:26:53;6.90;45.50
40534;DHT22;26233;51.894;10.192;2023-02-11T03:29:31;6.90;45.50
40534;DHT22;26233;51.894;10.192;2023-02-11T03:32:05;6.90;45.60
40534;DHT22;26233;51.894;10.192;2023-02-11T03:34:45;6.90;45.60
40534;DHT22;26233;51.894;10.192;2023-02-11T03:37:17;6.90;45.60
40534;DHT22;26233;51.894;10.192;2023-02-11T03:39:50;6.90;45.70
40534;DHT22;26233;51.894;10.192;2023-02-11T03:42:19;6.90;45.70
40534;DHT22;26233;51.894;10.192;2023-02-11T03:44:52;6.90;45.70
40534;DHT22;26233;51.894;10.192;2023-02-11T03:47:25;6.80;45.70
40534;DHT22;26233;51.894;10.192;2023-02-11T03:49:56;6.70;45.70
40534;DHT22;26233;51.894;10.192;2023-02-11T03:52:26;6.90;46.00
40534;DHT22;26233;51.894;10.192;2023-02-11T03:54:56;6.80;45.90
40534;DHT22;26233;51.894;10.192;2023-02-11T03:57:23;6.90;46.00
40534;DHT22;26233;51.894;10.192;2023-02-11T03:59:58;6.90;46.00
40534;DHT22;26233;51.894;10.192;2023-02-11T04:02:29;6.90;46.00
40534;DHT22;26233;51.894;10.192;2023-02-11T04:04:59;6.90;46.10
40534;DHT22;26233;51.894;10.192;2023-02-11T04:07:27;6.90;46.00
40534;DHT22;26233;51.894;10.192;2023-02-11T04:09:54;6.90;46.10
40534;DHT22;26233;51.894;10.192;2023-02-11T04:12:21;6.90;46.20
40534;DHT22;26233;51.894;10.192;2023-02-11T04:14:48;6.90;46.30
40534;DHT22;26233;51.894;10.192;2023-02-11T04:17:15;6.80;46.20
40534;DHT22;26233;51.894;10.192;2023-02-11T04:19:42;6.80;46.30
40534;DHT22;26233;51.894;10.192;2023-02-11T04:22:11;6.80;46.40
40534;DHT22;26233;51.894;10.192;2023-02-11T04:24:38;6.80;46.60
40534;DHT22;26233;51.894;10.192;2023-02-11T04:27:05;6.80;46.50
40534;DHT22;26233;51.894;10.192;2023-02-11T04:29:35;6.80;46.60
40534;DHT22;26233;51.894;10.192;2023-02-11T04:32:02;6.80;46.70
40534;DHT22;26233;51.894;10.192;2023-02-11T04:34:29;6.80;46.90
40534;DHT22;26233;51.894;10.192;2023-02-11T04:36:57;6.80;46.80
40534;DHT22;26233;51.894;10.192;2023-02-11T04:39:25;6.80;46.90
40534;DHT22;26233;51.894;10.192;2023-02-11T04:41:52;6.80;46.80
40534;DHT22;26233;51.894;10.192;2023-02-11T04:44:19;6.80;47.00
40534;DHT22;26233;51.894;10.192;2023-02-11T04:46:46;6.80;46.90
40534;DHT22;26233;51.894;10.192;2023-02-11T04:49:14;6.80;47.00
40534;DHT22;26233;51.894;10.192;2023-02-11T04:51:43;6.80;47.00
40534;DHT22;26233;51.894;10.192;2023-02-11T04:54:10;6.80;47.10
40534;DHT22;26233;51.894;10.192;2023-02-11T04:56:39;6.80;47.20
40534;DHT22;26233;51.894;10.192;2023-02-11T04:59:07;6.80;47.20
40534;DHT22;26233;51.894;10.192;2023-02-11T05:01:34;6.70;47.10
40534;DHT22;26233;51.894;10.192;2023-02-11T05:04:01;6.80;47.20
40534;DHT22;26233;51.894;10.192;2023-02-11T05:06:28;6.70;47.20
40534;DHT22;26233;51.894;10.192;2023-02-11T05:08:55;6.70;47.20
40534;DHT22;26233;51.894;10.192;2023-02-11T05:11:23;6.70;47.40
40534;DHT22;26233;51.894;10.192;2023-02-11T05:13:52;6.70;47.30
40534;DHT22;26233;51.894;10.192;2023-02-11T05:16:19;6.70;47.50
40534;DHT22;26233;51.894;10.192;2023-02-11T05:18:46;6.70;47.50
40534;DHT22;26233;51.894;10.192;2023-02-11T05:21:16;6.70;47.60
40534;DHT22;26233;51.894;10.192;2023-02-11T05:23:44;6.70;47.80
40534;DHT22;26233;51.894;10.192;2023-02-11T05:26:12;6.70;47.70
40534;DHT22;26233;51.894;10.192;2023-02-11T05:28:41;6.80;47.80
40534;DHT22;26233;51.894;10.192;2023-02-11T05:31:10;6.70;47.70
40534;DHT22;26233;51.894;10.192;2023-02-11T05:33:39;6.80;48.00
40534;DHT22;26233;51.894;10.192;2023-02-11T05:36:08;6.70;47.90
40534;DHT22;26233;51.894;10.192;2023-02-11T05:38:37;6.70;48.00
40534;DHT22;26233;51.894;10.192;2023-02-11T05:41:05;6.70;48.00
40534;DHT22;26233;51.894;10.192;2023-02-11T05:43:32;6.70;47.90
40534;DHT22;26233;51.894;10.192;2023-02-11T05:46:01;6.70;48.00
40534;DHT22;26233;51.894;10.192;2023-02-11T05:48:29;6.70;48.00
40534;DHT22;26233;51.894;10.192;2023-02-11T05:50:57;6.70;48.10
40534;DHT22;26233;51.894;10.192;2023-02-11T05:53:24;6.70;48.10
40534;DHT22;26233;51.894;10.192;2023-02-11T05:55:51;6.70;48.20
40534;DHT22;26233;51.894;10.192;2023-02-11T05:58:18;6.70;48.20
40534;DHT22;26233;51.894;10.192;2023-02-11T06:00:47;6.70;48.10
40534;DHT22;26233;51.894;10.192;2023-02-11T06:03:14;6.70;48.10
40534;DHT22;26233;51.894;10.192;2023-02-11T06:05:43;6.60;48.10
40534;DHT22;26233;51.894;10.192;2023-02-11T06:08:11;6.70;48.30
40534;DHT22;26233;51.894;10.192;2023-02-11T06:10:38;6.60;48.30
40534;DHT22;26233;51.894;10.192;2023-02-11T06:13:07;6.70;48.20
40534;DHT22;26233;51.894;10.192;2023-02-11T06:15:34;6.60;48.20
40534;DHT22;26233;51.894;10.192;2023-02-11T06:18:02;6.70;48.30
40534;DHT22;26233;51.894;10.192;2023-02-11T06:20:30;6.60;48.30
40534;DHT22;26233;51.894;10.192;2023-02-11T06:22:58;6.70;48.50
40534;DHT22;26233;51.894;10.192;2023-02-11T06:25:25;6.60;48.40
40534;DHT22;26233;51.894;10.192;2023-02-11T06:27:52;6.60;48.60
40534;DHT22;26233;51.894;10.192;2023-02-11T06:30:20;6.60;48.50
40534;DHT22;26233;51.894;10.192;2023-02-11T06:32:46;6.60;48.30
40534;DHT22;26233;51.894;10.192;2023-02-11T06:35:13;6.50;48.40
40534;DHT22;26233;51.894;10.192;2023-02-11T06:37:41;6.50;48.30
40534;DHT22;26233;51.894;10.192;2023-02-11T06:40:12;6.50;48.40
40534;DHT22;26233;51.894;10.192;2023-02-11T06:42:39;6.50;48.40
40534;DHT22;26233;51.894;10.192;2023-02-11T06:45:08;6.60;48.50
40534;DHT22;26233;51.894;10.192;2023-02-11T06:47:35;6.60;48.50
40534;DHT22;26233;51.894;10.192;2023-02-11T06:50:02;6.60;48.60
40534;DHT22;26233;51.894;10.192;2023-02-11T06:52:32;6.60;48.50
40534;DHT22;26233;51.894;10.192;2023-02-11T06:54:59;6.60;48.50
40534;DHT22;26233;51.894;10.192;2023-02-11T06:57:28;6.60;48.50
40534;DHT22;26233;51.894;10.192;2023-02-11T06:59:55;6.60;48.70
40534;DHT22;26233;51.894;10.192;2023-02-11T07:02:25;6.60;48.50
40534;DHT22;26233;51.894;10.192;2023-02-11T07:04:52;6.70;48.70
40534;DHT22;26233;51.894;10.192;2023-02-11T07:07:19;6.70;48.60
40534;DHT22;26233;51.894;10.192;2023-02-11T07:09:46;6.70;48.70
40534;DHT22;26233;51.894;10.192;2023-02-11T07:12:13;6.60;48.60
40534;DHT22;26233;51.894;10.192;2023-02-11T07:14:42;6.70;48.80
40534;DHT22;26233;51.894;10.192;2023-02-11T07:17:09;6.70;49.00
40534;DHT22;26233;51.894;10.192;2023-02-11T07:19:36;6.50;48.60
40534;DHT22;26233;51.894;10.192;2023-02-11T07:22:03;6.70;48.90
40534;DHT22;26233;51.894;10.192;2023-02-11T07:24:30;6.70;48.80
40534;DHT22;26233;51.894;10.192;2023-02-11T07:26:57;6.70;48.80
40534;DHT22;26233;51.894;10.192;2023-02-11T07:29:24;6.70;48.90
40534;DHT22;26233;51.894;10.192;2023-02-11T07:31:52;6.70;48.90
40534;DHT22;26233;51.894;10.192;2023-02-11T07:34:19;6.70;49.10
40534;DHT22;26233;51.894;10.192;2023-02-11T07:36:46;6.80;49.20
40534;DHT22;26233;51.894;10.192;2023-02-11T07:39:13;6.80;49.20
40534;DHT22;26233;51.894;10.192;2023-02-11T07:41:40;6.80;49.20
40534;DHT22;26233;51.894;10.192;2023-02-11T07:44:09;6.80;49.20
40534;DHT22;26233;51.894;10.192;2023-02-11T07:46:36;6.90;49.90
40534;DHT22;26233;51.894;10.192;2023-02-11T07:49:08;6.90;49.30
40534;DHT22;26233;51.894;10.192;2023-02-11T07:51:38;6.90;49.30
40534;DHT22;26233;51.894;10.192;2023-02-11T07:54:05;6.90;49.40
40534;DHT22;26233;51.894;10.192;2023-02-11T07:56:32;6.90;49.30
40534;DHT22;26233;51.894;10.192;2023-02-11T07:59:01;6.90;49.30
40534;DHT22;26233;51.894;10.192;2023-02-11T08:01:30;7.00;49.50
40534;DHT22;26233;51.894;10.192;2023-02-11T08:03:59;7.00;49.50
40534;DHT22;26233;51.894;10.192;2023-02-11T08:06:30;7.00;49.60
40534;DHT22;26233;51.894;10.192;2023-02-11T08:09:03;7.10;49.70
40534;DHT22;26233;51.894;10.192;2023-02-11T08:11:30;7.10;49.70
40534;DHT22;26233;51.894;10.192;2023-02-11T08:13:58;7.10;49.80
40534;DHT22;26233;51.894;10.192;2023-02-11T08:16:26;7.10;49.70
40534;DHT22;26233;51.894;10.192;2023-02-11T08:18:56;7.10;49.80
40534;DHT22;26233;51.894;10.192;2023-02-11T08:21:25;7.20;50.20
40534;DHT22;26233;51.894;10.192;2023-02-11T08:23:54;7.20;49.80
40534;DHT22;26233;51.894;10.192;2023-02-11T08:26:23;7.20;49.90
40534;DHT22;26233;51.894;10.192;2023-02-11T08:28:53;7.30;49.80
40534;DHT22;26233;51.894;10.192;2023-02-11T08:31:22;7.30;49.80
40534;DHT22;26233;51.894;10.192;2023-02-11T08:33:51;7.30;49.80
40534;DHT22;26233;51.894;10.192;2023-02-11T08:36:24;7.30;49.70
40534;DHT22;26233;51.894;10.192;2023-02-11T08:38:58;7.30;49.80
40534;DHT22;26233;51.894;10.192;2023-02-11T08:41:27;7.40;49.80
40534;DHT22;26233;51.894;10.192;2023-02-11T08:43:55;7.40;49.80
40534;DHT22;26233;51.894;10.192;2023-02-11T08:46:22;7.40;49.80
40534;DHT22;26233;51.894;10.192;2023-02-11T08:48:49;7.40;49.80
40534;DHT22;26233;51.894;10.192;2023-02-11T08:51:18;7.40;49.90
40534;DHT22;26233;51.894;10.192;2023-02-11T08:53:46;7.50;50.00
40534;DHT22;26233;51.894;10.192;2023-02-11T08:56:16;7.50;50.00
40534;DHT22;26233;51.894;10.192;2023-02-11T08:58:44;7.50;49.90
40534;DHT22;26233;51.894;10.192;2023-02-11T09:01:12;7.50;49.90
40534;DHT22;26233;51.894;10.192;2023-02-11T09:03:40;7.50;49.90
40534;DHT22;26233;51.894;10.192;2023-02-11T09:06:09;7.50;49.90
40534;DHT22;26233;51.894;10.192;2023-02-11T09:08:39;7.50;50.00
40534;DHT22;26233;51.894;10.192;2023-02-11T09:11:07;7.60;50.10
40534;DHT22;26233;51.894;10.192;2023-02-11T09:13:36;7.60;50.10
40534;DHT22;26233;51.894;10.192;2023-02-11T09:16:04;7.60;50.00
40534;DHT22;26233;51.894;10.192;2023-02-11T09:18:32;7.60;50.00
40534;DHT22;26233;51.894;10.192;2023-02-11T09:21:01;7.60;50.00
40534;DHT22;26233;51.894;10.192;2023-02-11T09:23:29;7.70;50.10
40534;DHT22;26233;51.894;10.192;2023-02-11T09:25:58;7.70;50.10
40534;DHT22;26233;51.894;10.192;2023-02-11T09:28:25;7.70;50.20
40534;DHT22;26233;51.894;10.192;2023-02-11T09:30:54;7.70;50.20
40534;DHT22;26233;51.894;10.192;2023-02-11T09:33:21;7.70;50.20
40534;DHT22;26233;51.894;10.192;2023-02-11T09:35:48;7.80;50.20
40534;DHT22;26233;51.894;10.192;2023-02-11T09:38:15;7.70;50.20
40534;DHT22;26233;51.894;10.192;2023-02-11T09:40:42;7.70;50.20
40534;DHT22;26233;51.894;10.192;2023-02-11T09:43:16;7.70;50.20
40534;DHT22;26233;51.894;10.192;2023-02-11T09:45:45;7.80;50.40
40534;DHT22;26233;51.894;10.192;2023-02-11T09:48:17;7.70;50.20
40534;DHT22;26233;51.894;10.192;2023-02-11T09:50:49;7.80;50.40
40534;DHT22;26233;51.894;10.192;2023-02-11T09:53:21;7.80;50.40
40534;DHT22;26233;51.894;10.192;2023-02-11T09:55:51;7.80;50.40
40534;DHT22;26233;51.894;10.192;2023-02-11T09:58:26;7.70;50.30
40534;DHT22;26233;51.894;10.192;2023-02-11T10:01:01;7.90;50.50
40534;DHT22;26233;51.894;10.192;2023-02-11T10:03:49;7.90;50.50
40534;DHT22;26233;51.894;10.192;2023-02-11T10:06:32;8.00;50.50
40534;DHT22;26233;51.894;10.192;2023-02-11T10:09:14;8.00;50.50
40534;DHT22;26233;51.894;10.192;2023-02-11T10:12:09;8.00;50.50
40534;DHT22;26233;51.894;10.192;2023-02-11T10:14:52;8.00;50.40
40534;DHT22;26233;51.894;10.192;2023-02-11T10:17:35;8.00;50.40
40534;DHT22;26233;51.894;10.192;2023-02-11T10:20:19;8.00;50.30
40534;DHT22;26233;51.894;10.192;2023-02-11T10:22:53;8.00;51.00
40534;DHT22;26233;51.894;10.192;2023-02-11T10:25:22;8.00;50.30
40534;DHT22;26233;51.894;10.192;2023-02-11T10:27:51;8.00;50.40
40534;DHT22;26233;51.894;10.192;2023-02-11T10:30:26;8.00;50.40
40534;DHT22;26233;51.894;10.192;2023-02-11T10:32:58;8.00;50.50
40534;DHT22;26233;51.894;10.192;2023-02-11T10:35:30;8.10;50.50
40534;DHT22;26233;51.894;10.192;2023-02-11T10:37:58;8.10;50.50
40534;DHT22;26233;51.894;10.192;2023-02-11T10:40:27;8.10;50.60
40534;DHT22;26233;51.894;10.192;2023-02-11T10:42:58;8.10;50.60
40534;DHT22;26233;51.894;10.192;2023-02-11T10:45:32;8.10;50.60
40534;DHT22;26233;51.894;10.192;2023-02-11T10:48:01;8.10;50.60
40534;DHT22;26233;51.894;10.192;2023-02-11T10:50:33;8.20;50.70
40534;DHT22;26233;51.894;10.192;2023-02-11T10:53:14;8.20;50.60
40534;DHT22;26233;51.894;10.192;2023-02-11T10:55:51;8.10;50.70
40534;DHT22;26233;51.894;10.192;2023-02-11T10:58:24;8.20;50.70
40534;DHT22;26233;51.894;10.192;2023-02-11T11:00:55;8.20;50.80
40534;DHT22;26233;51.894;10.192;2023-02-11T11:03:24;8.20;50.70
40534;DHT22;26233;51.894;10.192;2023-02-11T11:05:55;8.30;50.90
40534;DHT22;26233;51.894;10.192;2023-02-11T11:08:37;8.30;50.90
40534;DHT22;26233;51.894;10.192;2023-02-11T11:11:07;8.30;50.90
40534;DHT22;26233;51.894;10.192;2023-02-11T11:13:36;8.30;50.90
40534;DHT22;26233;51.894;10.192;2023-02-11T11:16:19;8.30;50.90
40534;DHT22;26233;51.894;10.192;2023-02-11T11:18:49;8.40;51.80
40534;DHT22;26233;51.894;10.192;2023-02-11T11:21:22;8.40;51.10
40534;DHT22;26233;51.894;10.192;2023-02-11T11:23:55;8.40;51.20
40534;DHT22;26233;51.894;10.192;2023-02-11T11:26:25;8.40;51.20
40534;DHT22;26233;51.894;10.192;2023-02-11T11:28:56;8.50;51.20
40534;DHT22;26233;51.894;10.192;2023-02-11T11:31:29;8.50;51.30
40534;DHT22;26233;51.894;10.192;2023-02-11T11:34:00;8.50;51.30
40534;DHT22;26233;51.894;10.192;2023-02-11T11:36:36;8.50;51.30
40534;DHT22;26233;51.894;10.192;2023-02-11T11:39:20;8.50;51.40
40534;DHT22;26233;51.894;10.192;2023-02-11T11:41:51;8.50;51.40
40534;DHT22;26233;51.894;10.192;2023-02-11T11:44:24;8.50;51.30
40534;DHT22;26233;51.894;10.192;2023-02-11T11:50:24;8.60;51.60
40534;DHT22;26233;51.894;10.192;2023-02-11T11:52:59;8.60;51.60
40534;DHT22;26233;51.894;10.192;2023-02-11T11:55:34;8.60;51.50
40534;DHT22;26233;51.894;10.192;2023-02-11T11:58:04;8.60;51.50
40534;DHT22;26233;51.894;10.192;2023-02-11T12:00:38;8.70;51.50
40534;DHT22;26233;51.894;10.192;2023-02-11T12:03:37;8.70;51.60
40534;DHT22;26233;51.894;10.192;2023-02-11T12:06:32;8.70;51.80
40534;DHT22;26233;51.894;10.192;2023-02-11T12:09:15;8.70;51.70
40534;DHT22;26233;51.894;10.192;2023-02-11T12:12:09;8.70;51.70
40534;DHT22;26233;51.894;10.192;2023-02-11T12:14:48;8.70;51.80
40534;DHT22;26233;51.894;10.192;2023-02-11T12:17:37;8.80;51.70
40534;DHT22;26233;51.894;10.192;2023-02-11T12:20:26;8.80;51.80
40534;DHT22;26233;51.894;10.192;2023-02-11T12:23:27;8.80;51.90
40534;DHT22;26233;51.894;10.192;2023-02-11T12:26:12;8.80;51.90
40534;DHT22;26233;51.894;10.192;2023-02-11T12:28:51;8.80;51.80
40534;DHT22;26233;51.894;10.192;2023-02-11T12:31:39;8.80;51.80
40534;DHT22;26233;51.894;10.192;2023-02-11T12:34:38;8.90;52.00
40534;DHT22;26233;51.894;10.192;2023-02-11T12:37:21;8.90;52.00
40534;DHT22;26233;51.894;10.192;2023-02-11T12:40:02;8.90;51.90
40534;DHT22;26233;51.894;10.192;2023-02-11T12:43:00;9.00;52.10
40534;DHT22;26233;51.894;10.192;2023-02-11T12:45:57;9.00;52.30
40534;DHT22;26233;51.894;10.192;2023-02-11T12:48:49;9.00;52.10
40534;DHT22;26233;51.894;10.192;2023-02-11T12:51:30;9.00;52.20
40534;DHT22;26233;51.894;10.192;2023-02-11T12:54:17;9.10;52.10
40534;DHT22;26233;51.894;10.192;2023-02-11T12:56:51;9.10;52.30
40534;DHT22;26233;51.894;10.192;2023-02-11T12:59:32;9.20;52.20
40534;DHT22;26233;51.894;10.192;2023-02-11T13:02:15;9.20;52.20
40534;DHT22;26233;51.894;10.192;2023-02-11T13:04:48;9.30;52.20
40534;DHT22;26233;51.894;10.192;2023-02-11T13:07:22;9.30;52.20
40534;DHT22;26233;51.894;10.192;2023-02-11T13:10:00;9.30;52.20
40534;DHT22;26233;51.894;10.192;2023-02-11T13:12:33;9.30;52.10
40534;DHT22;26233;51.894;10.192;2023-02-11T13:15:20;9.40;52.20
40534;DHT22;26233;51.894;10.192;2023-02-11T13:17:54;9.30;52.10
40534;DHT22;26233;51.894;10.192;2023-02-11T13:20:34;9.20;52.10
40534;DHT22;26233;51.894;10.192;2023-02-11T13:23:12;9.40;52.30
40534;DHT22;26233;51.894;10.192;2023-02-11T13:25:54;9.40;52.20
40534;DHT22;26233;51.894;10.192;2023-02-11T13:28:31;9.40;52.20
40534;DHT22;26233;51.894;10.192;2023-02-11T13:31:08;9.40;52.20
40534;DHT22;26233;51.894;10.192;2023-02-11T13:33:38;9.40;52.10
40534;DHT22;26233;51.894;10.192;2023-02-11T13:36:21;9.40;52.10
40534;DHT22;26233;51.894;10.192;2023-02-11T13:38:58;9.40;52.20
40534;DHT22;26233;51.894;10.192;2023-02-11T13:41:32;9.40;52.20
40534;DHT22;26233;51.894;10.192;2023-02-11T13:44:03;9.50;52.20
40534;DHT22;26233;51.894;10.192;2023-02-11T13:46:56;9.50;52.20
40534;DHT22;26233;51.894;10.192;2023-02-11T13:49:30;9.50;52.20
40534;DHT22;26233;51.894;10.192;2023-02-11T13:52:01;9.50;52.20
40534;DHT22;26233;51.894;10.192;2023-02-11T13:54:33;9.50;52.20
40534;DHT22;26233;51.894;10.192;2023-02-11T13:57:30;9.50;52.30
40534;DHT22;26233;51.894;10.192;2023-02-11T14:06:26;9.60;52.40
40534;DHT22;26233;51.894;10.192;2023-02-11T14:09:34;9.60;52.40
40534;DHT22;26233;51.894;10.192;2023-02-11T14:12:36;9.60;52.50
40534;DHT22;26233;51.894;10.192;2023-02-11T14:15:20;9.60;52.50
40534;DHT22;26233;51.894;10.192;2023-02-11T14:17:53;9.60;52.40
40534;DHT22;26233;51.894;10.192;2023-02-11T14:20:37;9.60;52.30
40534;DHT22;26233;51.894;10.192;2023-02-11T14:23:24;9.60;52.40
40534;DHT22;26233;51.894;10.192;2023-02-11T14:29:00;9.60;52.40
40534;DHT22;26233;51.894;10.192;2023-02-11T14:31:37;9.60;52.40
40534;DHT22;26233;51.894;10.192;2023-02-11T14:34:20;9.70;52.50
40534;DHT22;26233;51.894;10.192;2023-02-11T14:37:12;9.70;52.50
40534;DHT22;26233;51.894;10.192;2023-02-11T14:39:57;9.70;52.50
40534;DHT22;26233;51.894;10.192;2023-02-11T14:42:29;9.70;52.50
40534;DHT22;26233;51.894;10.192;2023-02-11T14:44:58;9.70;52.40
40534;DHT22;26233;51.894;10.192;2023-02-11T14:47:40;9.70;52.40
40534;DHT22;26233;51.894;10.192;2023-02-11T14:50:16;9.80;52.60
40534;DHT22;26233;51.894;10.192;2023-02-11T14:52:52;9.80;52.50
40534;DHT22;26233;51.894;10.192;2023-02-11T14:55:29;9.80;52.60
40534;DHT22;26233;51.894;10.192;2023-02-11T14:58:12;9.80;52.60
40534;DHT22;26233;51.894;10.192;2023-02-11T15:00:49;9.80;52.60
40534;DHT22;26233;51.894;10.192;2023-02-11T15:03:31;9.80;53.20
40534;DHT22;26233;51.894;10.192;2023-02-11T15:06:02;9.90;52.60
40534;DHT22;26233;51.894;10.192;2023-02-11T15:08:34;9.80;52.50
40534;DHT22;26233;51.894;10.192;2023-02-11T15:11:08;9.80;52.50
40534;DHT22;26233;51.894;10.192;2023-02-11T15:13:37;9.80;52.60
40534;DHT22;26233;51.894;10.192;2023-02-11T15:16:09;9.90;52.60
40534;DHT22;26233;51.894;10.192;2023-02-11T15:18:41;9.80;52.50
40534;DHT22;26233;51.894;10.192;2023-02-11T15:21:11;9.90;52.60
40534;DHT22;26233;51.894;10.192;2023-02-11T15:23:39;9.90;52.60
40534;DHT22;26233;51.894;10.192;2023-02-11T15:26:13;9.90;52.60
40534;DHT22;26233;51.894;10.192;2023-02-11T15:28:46;9.90;52.70
40534;DHT22;26233;51.894;10.192;2023-02-11T15:31:18;9.90;52.60
40534;DHT22;26233;51.894;10.192;2023-02-11T15:33:50;9.80;52.50
40534;DHT22;26233;51.894;10.192;2023-02-11T15:36:19;9.80;52.60
40534;DHT22;26233;51.894;10.192;2023-02-11T15:39:17;9.90;52.70
40534;DHT22;26233;51.894;10.192;2023-02-11T15:41:45;9.80;52.70
40534;DHT22;26233;51.894;10.192;2023-02-11T15:44:29;9.90;52.70
40534;DHT22;26233;51.894;10.192;2023-02-11T15:46:57;9.90;52.80
40534;DHT22;26233;51.894;10.192;2023-02-11T15:49:25;9.90;52.70
40534;DHT22;26233;51.894;10.192;2023-02-11T15:51:53;9.90;52.70
40534;DHT22;26233;51.894;10.192;2023-02-11T15:54:25;9.90;52.70
40534;DHT22;26233;51.894;10.192;2023-02-11T15:56:59;9.90;52.70
40534;DHT22;26233;51.894;10.192;2023-02-11T15:59:30;9.90;52.80
40534;DHT22;26233;51.894;10.192;2023-02-11T16:02:06;9.80;52.70
40534;DHT22;26233;51.894;10.192;2023-02-11T16:04:35;9.90;52.80
40534;DHT22;26233;51.894;10.192;2023-02-11T16:07:03;9.90;52.80
40534;DHT22;26233;51.894;10.192;2023-02-11T16:09:34;9.90;52.70
40534;DHT22;26233;51.894;10.192;2023-02-11T16:12:03;9.90;52.80
40534;DHT22;26233;51.894;10.192;2023-02-11T16:14:52;9.90;52.80
40534;DHT22;26233;51.894;10.192;2023-02-11T16:17:23;9.90;52.80
40534;DHT22;26233;51.894;10.192;2023-02-11T16:19:53;9.90;52.80
40534;DHT22;26233;51.894;10.192;2023-02-11T16:22:23;9.90;52.80
40534;DHT22;26233;51.894;10.192;2023-02-11T16:24:55;9.90;52.80